createdAt,value
2019-04-14T00:02:01.114Z,57.48
2019-04-14T00:04:35.579Z,57.77
2019-04-14T00:07:05.844Z,58.20
2019-04-14T00:09:35.850Z,58.39
2019-04-14T00:12:07.564Z,58.33
2019-04-14T00:14:38.318Z,58.57
2019-04-14T00:17:10.725Z,58.42
2019-04-14T00:19:41.305Z,58.67
2019-04-14T00:22:11.715Z,58.42
2019-04-14T00:24:42.426Z,58.13
2019-04-14T00:27:12.843Z,58.41
2019-04-14T00:29:45.794Z,58.39
2019-04-14T00:32:22.709Z,58.41
2019-04-14T00:35:03.868Z,58.72
2019-04-14T00:37:40.972Z,58.65
2019-04-14T00:40:19.329Z,58.76
2019-04-14T00:43:22.075Z,58.56
2019-04-14T00:46:00.525Z,58.67
2019-04-14T00:48:30.146Z,58.63
2019-04-14T00:51:04.788Z,58.89
2019-04-14T00:53:36.103Z,59.09
2019-04-14T00:56:06.195Z,59.13
2019-04-14T00:58:36.793Z,59.46
2019-04-14T01:01:07.231Z,59.28
2019-04-14T01:03:37.339Z,59.84
2019-04-14T01:06:07.680Z,59.68
2019-04-14T01:08:40.223Z,59.52
2019-04-14T01:11:11.750Z,59.40
2019-04-14T01:13:42.033Z,59.52
2019-04-14T01:16:17.617Z,59.78
2019-04-14T01:18:45.170Z,59.93
2019-04-14T01:21:17.346Z,59.93
2019-04-14T01:23:48.652Z,60.02
2019-04-14T01:26:20.286Z,60.07
2019-04-14T01:28:54.795Z,60.56
2019-04-14T01:31:25.203Z,60.80
2019-04-14T01:33:55.535Z,60.58
2019-04-14T01:36:27.689Z,61.03
2019-04-14T01:38:58.148Z,60.88
2019-04-14T01:41:28.201Z,61.12
2019-04-14T01:43:58.240Z,61.22
2019-04-14T01:46:32.679Z,61.37
2019-04-14T01:49:03.192Z,61.20
2019-04-14T01:51:44.242Z,61.68
2019-04-14T01:54:36.417Z,61.77
2019-04-14T01:57:26.357Z,61.89
2019-04-14T01:59:56.755Z,61.98
2019-04-14T02:02:27.581Z,61.79
2019-04-14T02:04:59.631Z,62.34
2019-04-14T02:07:29.759Z,62.55
2019-04-14T02:09:59.597Z,62.39
2019-04-14T02:12:30.250Z,62.24
2019-04-14T02:15:00.433Z,62.53
2019-04-14T02:17:30.744Z,62.35
2019-04-14T02:20:01.229Z,63.12
2019-04-14T02:22:31.708Z,63.17
2019-04-14T02:25:03.630Z,63.48
2019-04-14T02:27:33.984Z,63.31
2019-04-14T02:30:04.745Z,63.21
2019-04-14T02:33:05.440Z,63.17
2019-04-14T02:35:37.191Z,63.06
2019-04-14T02:38:14.491Z,63.31
2019-04-14T02:43:12.818Z,63.67
2019-04-14T02:45:46.175Z,64.19
2019-04-14T02:48:27.530Z,64.13
2019-04-14T02:50:48.081Z,64.12
2019-04-14T02:55:59.452Z,64.52
2019-04-14T02:58:28.545Z,64.50
2019-04-14T03:00:58.422Z,64.05
2019-04-14T03:06:05.652Z,63.58
2019-04-14T03:16:15.615Z,62.94
2019-04-14T03:19:20.563Z,62.71
2019-04-14T03:22:28.977Z,62.87
2019-04-14T03:25:15.223Z,62.69
2019-04-14T03:28:14.383Z,62.99
2019-04-14T03:30:58.855Z,62.78
2019-04-14T03:36:20.941Z,63.11
2019-04-14T03:38:21.423Z,63.35
2019-04-14T03:40:50.717Z,63.32
2019-04-14T03:43:18.824Z,63.43
2019-04-14T03:45:55.135Z,63.46
2019-04-14T03:50:55.647Z,63.23
2019-04-14T03:53:37.665Z,63.69
2019-04-14T03:56:14.242Z,63.27
2019-04-14T03:58:45.004Z,63.17
2019-04-14T04:01:17.186Z,62.79
2019-04-14T04:03:50.335Z,62.96
2019-04-14T04:06:20.358Z,63.69
2019-04-14T04:08:50.949Z,63.71
2019-04-14T04:11:23.729Z,63.78
2019-04-14T04:13:56.422Z,63.90
2019-04-14T04:16:35.522Z,63.66
2019-04-14T04:19:15.536Z,63.84
2019-04-14T04:22:08.559Z,63.84
2019-04-14T04:24:55.024Z,64.09
2019-04-14T04:27:46.167Z,64.24
2019-04-14T04:30:36.811Z,64.37
2019-04-14T04:33:34.800Z,64.23
2019-04-14T04:36:11.818Z,64.23
2019-04-14T04:39:06.681Z,64.12
2019-04-14T04:41:36.461Z,64.38
2019-04-14T04:44:07.123Z,64.16
2019-04-14T04:46:37.350Z,64.10
2019-04-14T04:49:16.480Z,64.08
2019-04-14T04:51:42.194Z,64.08
2019-04-14T04:54:12.531Z,63.83
2019-04-14T04:56:44.789Z,63.84
2019-04-14T04:59:15.486Z,63.84
2019-04-14T05:01:45.203Z,63.50
2019-04-14T05:04:15.428Z,63.86
2019-04-14T05:07:03.361Z,63.49
2019-04-14T05:09:49.103Z,63.55
2019-04-14T05:12:36.990Z,63.32
2019-04-14T05:15:29.841Z,63.17
2019-04-14T05:18:00.434Z,63.51
2019-04-14T05:20:29.891Z,63.40
2019-04-14T05:22:59.410Z,63.66
2019-04-14T05:25:29.722Z,64.06
2019-04-14T05:28:00.373Z,64.21
2019-04-14T05:30:30.700Z,63.99
2019-04-14T05:33:00.982Z,63.72
2019-04-14T05:35:31.281Z,63.63
2019-04-14T05:38:02.359Z,63.78
2019-04-14T05:40:32.146Z,63.70
2019-04-14T05:43:02.502Z,64.07
2019-04-14T05:45:32.776Z,63.62
2019-04-14T05:48:03.266Z,63.77
2019-04-14T05:50:33.517Z,62.95
2019-04-14T05:53:04.354Z,62.47
2019-04-14T05:55:35.093Z,62.35
2019-04-14T05:58:06.485Z,62.23
2019-04-14T06:00:36.832Z,62.43
2019-04-14T06:03:06.304Z,62.01
2019-04-14T06:05:36.144Z,61.58
2019-04-14T06:08:05.975Z,61.73
2019-04-14T06:10:35.576Z,61.43
2019-04-14T06:13:04.966Z,61.16
2019-04-14T06:15:35.088Z,61.40
2019-04-14T06:18:04.469Z,60.89
2019-04-14T06:20:34.341Z,60.77
2019-04-14T06:23:03.875Z,61.04
2019-04-14T06:25:36.202Z,61.26
2019-04-14T06:28:04.465Z,61.12
2019-04-14T06:30:52.666Z,61.42
2019-04-14T06:33:37.878Z,61.72
2019-04-14T06:36:29.000Z,61.65
2019-04-14T06:39:07.682Z,61.26
2019-04-14T06:41:37.066Z,61.14
2019-04-14T06:44:06.482Z,60.62
2019-04-14T06:46:35.893Z,59.91
2019-04-14T06:49:05.395Z,59.84
2019-04-14T06:51:34.856Z,59.51
2019-04-14T06:54:04.226Z,59.00
2019-04-14T06:56:33.624Z,59.13
2019-04-14T06:59:03.045Z,58.81
2019-04-14T07:01:32.423Z,58.52
2019-04-14T07:04:01.808Z,58.42
2019-04-14T07:06:31.596Z,58.65
2019-04-14T07:09:00.957Z,58.00
2019-04-14T07:11:30.365Z,57.58
2019-04-14T07:13:59.956Z,57.66
2019-04-14T07:16:29.410Z,56.88
2019-04-14T07:18:58.785Z,56.66
2019-04-14T07:21:28.355Z,56.44
2019-04-14T07:23:58.933Z,55.16
2019-04-14T07:26:28.376Z,53.89
2019-04-14T07:28:58.200Z,53.21
2019-04-14T07:31:40.650Z,51.29
2019-04-14T07:34:29.693Z,50.15
2019-04-14T07:37:09.377Z,50.10
2019-04-14T07:39:47.704Z,50.46
2019-04-14T07:42:35.968Z,49.98
2019-04-14T07:45:29.301Z,50.81
2019-04-14T07:48:04.740Z,49.74
2019-04-14T07:50:54.934Z,48.97
2019-04-14T07:53:42.887Z,49.29
2019-04-14T07:56:38.207Z,49.20
2019-04-14T07:59:13.844Z,50.23
2019-04-14T08:02:08.734Z,50.47
2019-04-14T08:04:42.340Z,50.46
2019-04-14T08:07:12.626Z,50.28
2019-04-14T08:09:42.678Z,49.68
2019-04-14T08:12:12.438Z,49.20
2019-04-14T08:14:42.468Z,49.52
2019-04-14T08:17:14.461Z,49.76
2019-04-14T08:19:44.004Z,50.37
2019-04-14T08:22:13.656Z,49.50
2019-04-14T08:24:44.331Z,50.46
2019-04-14T08:27:13.836Z,50.82
2019-04-14T08:29:43.261Z,51.59
2019-04-14T08:32:12.767Z,50.75
2019-04-14T08:34:42.832Z,50.25
2019-04-14T08:37:12.766Z,50.96
2019-04-14T08:39:44.582Z,51.20
2019-04-14T08:42:49.796Z,51.31
2019-04-14T08:45:38.386Z,51.31
2019-04-14T08:48:16.083Z,51.71
2019-04-14T08:51:01.568Z,51.37
2019-04-14T08:53:45.475Z,52.25
2019-04-14T08:56:29.137Z,52.17
2019-04-14T08:59:07.794Z,52.46
2019-04-14T09:01:53.765Z,52.91
2019-04-14T09:04:48.474Z,53.54
2019-04-14T09:07:28.100Z,53.94
2019-04-14T09:10:01.702Z,53.78
2019-04-14T09:12:34.254Z,53.53
2019-04-14T09:15:04.143Z,53.28
2019-04-14T09:17:33.547Z,53.72
2019-04-14T09:20:03.178Z,53.68
2019-04-14T09:22:32.946Z,53.60
2019-04-14T09:25:02.738Z,52.84
2019-04-14T09:27:32.109Z,52.17
2019-04-14T09:30:01.551Z,52.46
2019-04-14T09:32:31.337Z,52.00
2019-04-14T09:35:00.720Z,51.24
2019-04-14T09:37:30.718Z,51.49
2019-04-14T09:40:00.314Z,51.65
2019-04-14T09:42:33.176Z,52.67
2019-04-14T09:45:02.717Z,53.66
2019-04-14T09:47:32.326Z,54.30
2019-04-14T09:50:01.769Z,54.84
2019-04-14T09:52:31.386Z,54.62
2019-04-14T09:55:00.891Z,54.18
2019-04-14T09:57:31.725Z,53.71
2019-04-14T10:00:01.169Z,53.46
2019-04-14T10:02:30.574Z,54.50
2019-04-14T10:05:01.988Z,54.05
2019-04-14T10:07:31.444Z,53.99
2019-04-14T10:10:00.938Z,53.82
2019-04-14T10:12:30.352Z,53.33
2019-04-14T10:15:00.139Z,52.81
2019-04-14T10:17:30.575Z,53.01
2019-04-14T10:20:00.058Z,53.90
2019-04-14T10:22:34.326Z,54.36
2019-04-14T10:25:01.591Z,55.20
2019-04-14T10:27:30.953Z,55.04
2019-04-14T10:30:00.510Z,54.76
2019-04-14T10:32:31.351Z,55.60
2019-04-14T10:35:05.907Z,56.60
2019-04-14T10:37:36.969Z,57.07
2019-04-14T10:40:08.086Z,57.43
2019-04-14T10:42:37.756Z,57.55
2019-04-14T10:45:08.288Z,57.09
2019-04-14T10:47:37.930Z,56.92
2019-04-14T10:50:07.576Z,56.06
2019-04-14T10:52:37.013Z,56.31
2019-04-14T10:55:07.858Z,55.91
2019-04-14T10:57:37.314Z,55.55
2019-04-14T11:00:12.644Z,55.67
2019-04-14T11:02:42.865Z,56.56
2019-04-14T11:05:13.002Z,56.76
2019-04-14T11:07:42.933Z,57.70
2019-04-14T11:10:13.196Z,58.21
2019-04-14T11:12:42.788Z,58.25
2019-04-14T11:15:15.482Z,57.71
2019-04-14T11:17:44.736Z,58.47
2019-04-14T11:20:14.197Z,58.25
2019-04-14T11:22:43.630Z,58.51
2019-04-14T11:25:13.017Z,58.24
2019-04-14T11:27:42.770Z,58.87
2019-04-14T11:30:19.061Z,59.79
2019-04-14T11:32:56.385Z,59.54
2019-04-14T11:35:39.119Z,59.50
2019-04-14T11:38:33.444Z,59.90
2019-04-14T11:41:04.890Z,61.55
2019-04-14T11:43:34.391Z,61.07
2019-04-14T11:46:04.367Z,59.73
2019-04-14T11:48:33.926Z,59.87
2019-04-14T11:51:03.305Z,60.37
2019-04-14T11:53:32.694Z,60.73
2019-04-14T11:56:03.048Z,61.14
2019-04-14T11:58:32.458Z,60.95
2019-04-14T12:01:39.881Z,60.60
2019-04-14T12:04:19.370Z,60.49
2019-04-14T12:07:06.161Z,60.41
2019-04-14T12:09:38.899Z,60.44
2019-04-14T12:12:10.637Z,61.65
2019-04-14T12:14:41.357Z,61.66
2019-04-14T12:17:14.251Z,61.66
2019-04-14T12:19:43.620Z,62.43
2019-04-14T12:22:13.366Z,62.73
2019-04-14T12:24:45.668Z,62.52
2019-04-14T12:27:15.044Z,62.51
2019-04-14T12:29:45.692Z,62.25
2019-04-14T12:32:15.394Z,62.89
2019-04-14T12:34:44.975Z,62.32
2019-04-14T12:37:14.709Z,62.38
2019-04-14T12:40:02.757Z,62.40
2019-04-14T12:42:38.905Z,61.87
2019-04-14T12:45:37.923Z,62.52
2019-04-14T12:48:22.340Z,61.78
2019-04-14T12:51:07.597Z,62.01
2019-04-14T12:53:40.237Z,62.52
2019-04-14T12:56:09.560Z,61.56
2019-04-14T12:58:58.025Z,62.44
2019-04-14T13:01:32.148Z,61.95
2019-04-14T13:04:02.679Z,62.65
2019-04-14T13:06:33.674Z,62.61
2019-04-14T13:09:03.602Z,62.87
2019-04-14T13:11:36.193Z,63.42
2019-04-14T13:14:05.839Z,62.99
2019-04-14T13:16:35.224Z,62.87
2019-04-14T13:19:05.970Z,62.62
2019-04-14T13:21:40.466Z,62.85
2019-04-14T13:24:10.126Z,62.99
2019-04-14T13:26:42.223Z,62.70
2019-04-14T13:29:11.894Z,62.63
2019-04-14T13:31:41.261Z,61.97
2019-04-14T13:34:10.684Z,62.36
2019-04-14T13:36:45.143Z,62.27
2019-04-14T13:39:14.509Z,62.16
2019-04-14T13:41:43.979Z,62.50
2019-04-14T13:44:13.870Z,63.14
2019-04-14T13:46:46.228Z,62.99
2019-04-14T13:49:15.621Z,62.87
2019-04-14T13:51:46.931Z,62.75
2019-04-14T13:54:18.897Z,62.94
2019-04-14T13:56:54.254Z,63.11
2019-04-14T13:59:26.973Z,63.13
2019-04-14T14:01:56.350Z,63.23
2019-04-14T14:04:28.762Z,63.11
2019-04-14T14:06:58.167Z,63.14
2019-04-14T14:09:41.870Z,62.72
2019-04-14T14:12:39.667Z,63.21
2019-04-14T14:15:36.926Z,63.76
2019-04-14T14:18:40.463Z,63.48
2019-04-14T14:21:33.023Z,63.50
2019-04-14T14:24:33.192Z,63.72
2019-04-14T14:27:14.384Z,63.61
2019-04-14T14:29:43.788Z,63.48
2019-04-14T14:32:40.714Z,64.35
2019-04-14T14:35:10.298Z,63.41
2019-04-14T14:37:39.680Z,64.20
2019-04-14T14:40:10.496Z,63.59
2019-04-14T14:42:44.361Z,63.00
2019-04-14T14:45:40.121Z,62.87
2019-04-14T14:48:19.846Z,62.70
2019-04-14T14:50:54.787Z,62.72
2019-04-14T14:53:24.272Z,62.25
2019-04-14T14:55:55.461Z,62.25
2019-04-14T14:58:28.329Z,62.03
2019-04-14T15:00:59.178Z,61.35
2019-04-14T15:03:30.520Z,62.38
2019-04-14T15:06:00.063Z,61.49
2019-04-14T15:08:29.518Z,61.12
2019-04-14T15:10:58.930Z,61.14
2019-04-14T15:13:28.618Z,61.33
2019-04-14T15:15:59.907Z,61.21
2019-04-14T15:18:29.298Z,61.09
2019-04-14T15:20:58.734Z,61.20
2019-04-14T15:23:28.133Z,61.13
2019-04-14T15:25:57.511Z,60.75
2019-04-14T15:28:26.973Z,61.51
2019-04-14T15:30:56.381Z,61.76
2019-04-14T15:33:26.786Z,61.99
2019-04-14T15:35:56.543Z,61.87
2019-04-14T15:38:25.918Z,62.27
2019-04-14T15:40:55.506Z,62.03
2019-04-14T15:43:24.995Z,62.38
2019-04-14T15:45:54.372Z,62.19
2019-04-14T15:48:23.774Z,62.48
2019-04-14T15:50:53.320Z,62.81
2019-04-14T15:53:22.727Z,62.71
2019-04-14T15:55:52.141Z,62.31
2019-04-14T15:58:48.367Z,62.53
2019-04-14T16:01:51.999Z,61.95
2019-04-14T16:04:52.540Z,62.11
2019-04-14T16:07:30.945Z,62.14
2019-04-14T16:10:22.386Z,61.81
2019-04-14T16:13:09.355Z,61.47
2019-04-14T16:16:01.313Z,61.12
2019-04-14T16:18:48.282Z,61.37
2019-04-14T16:21:17.766Z,61.32
2019-04-14T16:23:50.601Z,61.45
2019-04-14T16:26:23.340Z,61.07
2019-04-14T16:29:02.645Z,60.54
2019-04-14T16:31:47.267Z,60.55
2019-04-14T16:34:38.944Z,60.15
2019-04-14T16:37:10.132Z,59.89
2019-04-14T16:39:39.534Z,59.78
2019-04-14T16:42:09.009Z,59.88
2019-04-14T16:44:38.558Z,59.32
2019-04-14T16:47:09.467Z,59.89
2019-04-14T16:49:40.144Z,59.48
2019-04-14T16:52:32.445Z,59.52
2019-04-14T16:55:33.393Z,60.00
2019-04-14T16:58:25.242Z,59.75
2019-04-14T17:01:00.111Z,59.71
2019-04-14T17:03:32.121Z,59.89
2019-04-14T17:06:03.347Z,59.93
2019-04-14T17:08:33.082Z,59.93
2019-04-14T17:11:04.994Z,59.88
2019-04-14T17:13:37.135Z,59.97
2019-04-14T17:16:23.676Z,60.32
2019-04-14T17:19:16.288Z,60.21
2019-04-14T17:21:55.405Z,60.61
2019-04-14T17:24:49.557Z,60.66
2019-04-14T17:27:45.855Z,60.49
2019-04-14T17:30:24.695Z,60.36
2019-04-14T17:33:12.093Z,60.53
2019-04-14T17:35:49.868Z,60.63
2019-04-14T17:38:41.120Z,60.68
2019-04-14T17:41:29.389Z,60.46
2019-04-14T17:44:03.833Z,60.39
2019-04-14T17:46:50.829Z,60.46
2019-04-14T17:49:42.048Z,61.03
2019-04-14T17:52:45.744Z,61.11
2019-04-14T17:55:33.061Z,60.96
2019-04-14T17:58:08.908Z,61.49
2019-04-14T18:01:06.986Z,61.68
2019-04-14T18:04:07.456Z,61.51
2019-04-14T18:06:47.294Z,61.64
2019-04-14T18:09:39.685Z,62.16
2019-04-14T18:12:26.567Z,62.88
2019-04-14T18:15:06.607Z,62.65
2019-04-14T18:18:12.046Z,62.95
2019-04-14T18:20:44.445Z,63.22
2019-04-14T18:23:13.809Z,63.07
2019-04-14T18:25:43.691Z,62.88
2019-04-14T18:28:35.530Z,62.73
2019-04-14T18:31:19.995Z,62.71
2019-04-14T18:34:12.304Z,62.94
2019-04-14T18:37:00.293Z,63.39
2019-04-14T18:39:54.683Z,63.34
2019-04-14T18:42:43.101Z,63.69
2019-04-14T18:45:47.872Z,63.49
2019-04-14T18:48:40.132Z,63.19
2019-04-14T18:51:31.469Z,63.12
2019-04-14T18:57:18.928Z,63.03
2019-04-14T19:00:01.334Z,63.10
2019-04-14T19:02:30.824Z,62.97
2019-04-14T19:05:00.175Z,63.33
2019-04-14T19:07:32.778Z,63.40
2019-04-14T19:10:05.111Z,63.09
2019-04-14T19:12:40.696Z,63.00
2019-04-14T19:15:21.908Z,63.21
2019-04-14T19:17:58.244Z,63.05
2019-04-14T19:20:27.748Z,62.86
2019-04-14T19:22:58.234Z,62.46
2019-04-14T19:25:28.905Z,62.42
2019-04-14T19:28:00.092Z,62.06
2019-04-14T19:30:29.653Z,61.74
2019-04-14T19:32:59.097Z,61.67
2019-04-14T19:35:28.614Z,61.44
2019-04-14T19:37:58.115Z,61.07
2019-04-14T19:40:29.705Z,60.46
2019-04-14T19:43:00.544Z,60.33
2019-04-14T19:45:31.415Z,60.23
2019-04-14T19:48:00.956Z,60.06
2019-04-14T19:50:32.267Z,59.74
2019-04-14T19:53:01.770Z,59.38
2019-04-14T19:55:32.685Z,59.43
2019-04-14T19:58:02.211Z,59.84
2019-04-14T20:00:33.489Z,59.72
2019-04-14T20:03:04.212Z,59.53
2019-04-14T20:05:33.670Z,59.82
2019-04-14T20:08:04.565Z,59.41
2019-04-14T20:10:34.148Z,59.68
2019-04-14T20:13:04.708Z,59.23
2019-04-14T20:15:39.750Z,59.61
2019-04-14T20:18:14.784Z,59.11
2019-04-14T20:21:00.276Z,58.97
2019-04-14T20:23:40.400Z,58.46
2019-04-14T20:26:25.746Z,58.32
2019-04-14T20:29:03.208Z,57.91
2019-04-14T20:31:40.432Z,58.13
2019-04-14T20:34:11.180Z,57.56
2019-04-14T20:36:43.311Z,57.50
2019-04-14T20:39:15.813Z,57.72
2019-04-14T20:41:45.353Z,57.45
2019-04-14T20:44:15.465Z,56.79
2019-04-14T20:46:45.497Z,56.43
2019-04-14T20:49:15.206Z,55.97
2019-04-14T20:51:45.289Z,56.04
2019-04-14T20:54:15.244Z,55.70
2019-04-14T20:56:46.589Z,56.03
2019-04-14T20:59:18.037Z,55.31
2019-04-14T21:01:58.956Z,54.23
2019-04-14T21:04:36.506Z,53.45
2019-04-14T21:07:30.901Z,52.50
2019-04-14T21:10:08.502Z,52.12
2019-04-14T21:12:53.440Z,52.14
2019-04-14T21:15:34.032Z,52.12
2019-04-14T21:18:16.083Z,51.79
2019-04-14T21:21:10.110Z,50.48
2019-04-14T21:24:12.543Z,49.03
2019-04-14T21:26:49.395Z,49.13
2019-04-14T21:29:40.632Z,48.60
2019-04-14T21:32:20.739Z,48.36
2019-04-14T21:35:11.942Z,48.18
2019-04-14T21:37:57.894Z,47.65
2019-04-14T21:40:41.564Z,46.81
2019-04-14T21:43:11.349Z,47.14
2019-04-14T21:45:40.691Z,46.74
2019-04-14T21:48:10.077Z,47.06
2019-04-14T21:50:39.813Z,46.83
2019-04-14T21:53:09.215Z,47.02
2019-04-14T21:55:38.654Z,46.95
2019-04-14T21:58:32.970Z,46.98
2019-04-14T22:01:50.199Z,47.26
2019-04-14T22:04:38.395Z,47.68
2019-04-14T22:07:20.723Z,47.58
2019-04-14T22:09:50.613Z,47.97
2019-04-14T22:12:20.512Z,47.64
2019-04-14T22:14:49.921Z,47.44
2019-04-14T22:17:19.400Z,47.41
2019-04-14T22:19:48.845Z,47.49
2019-04-14T22:22:20.345Z,47.28
2019-04-14T22:24:49.743Z,47.33
2019-04-14T22:27:19.325Z,47.33
2019-04-14T22:29:48.712Z,47.73
2019-04-14T22:32:21.035Z,47.25
2019-04-14T22:34:50.852Z,47.40
2019-04-14T22:37:20.266Z,47.68
2019-04-14T22:39:49.679Z,48.02
2019-04-14T22:42:19.186Z,47.64
2019-04-14T22:44:48.583Z,48.02
2019-04-14T22:47:18.013Z,48.33
2019-04-14T22:49:47.523Z,48.72
2019-04-14T22:52:16.949Z,48.74
2019-04-14T22:54:46.339Z,49.32
2019-04-14T22:57:16.248Z,49.70
2019-04-14T22:59:45.662Z,50.09
2019-04-14T23:02:35.708Z,50.15
2019-04-14T23:05:23.165Z,50.16
2019-04-14T23:08:19.150Z,50.53
2019-04-14T23:11:12.384Z,50.60
2019-04-14T23:13:49.682Z,50.28
2019-04-14T23:16:32.653Z,50.43
2019-04-14T23:19:07.491Z,50.27
2019-04-14T23:21:41.414Z,50.13
2019-04-14T23:24:20.040Z,50.01
2019-04-14T23:26:52.811Z,49.66
2019-04-14T23:29:22.546Z,49.81
2019-04-14T23:31:52.052Z,49.72
2019-04-14T23:34:24.030Z,49.97
2019-04-14T23:36:53.427Z,50.14
2019-04-14T23:39:24.107Z,50.01
2019-04-14T23:41:53.777Z,49.88
2019-04-14T23:44:23.166Z,50.19
2019-04-14T23:46:52.588Z,49.83
2019-04-14T23:49:22.142Z,49.97
2019-04-14T23:51:51.531Z,50.02
2019-04-14T23:54:21.017Z,50.07
2019-04-14T23:57:04.758Z,50.20
2019-04-14T23:59:25.022Z,50.14
